createdAt,value
2023-04-24T00:02:44.267Z,21
2023-04-24T00:08:37.369Z,21
2023-04-24T00:14:29.421Z,21
2023-04-24T00:20:20.377Z,21
2023-04-24T00:26:12.159Z,21
2023-04-24T00:32:02.868Z,21
2023-04-24T00:37:54.393Z,21
2023-04-24T00:43:45.604Z,20.9
2023-04-24T00:49:36.478Z,21
2023-04-24T00:55:27.660Z,21
2023-04-24T01:01:03.683Z,20.9
2023-04-24T01:06:56.857Z,20.9
2023-04-24T01:12:48.482Z,20.9
2023-04-24T01:18:40.370Z,20.9
2023-04-24T01:24:32.535Z,20.9
2023-04-24T01:30:23.823Z,20.9
2023-04-24T01:36:15.850Z,20.9
2023-04-24T01:41:51.958Z,20.9
2023-04-24T01:47:43.530Z,20.9
2023-04-24T01:53:35.452Z,20.9
2023-04-24T01:59:26.793Z,20.9
2023-04-24T02:05:20.495Z,20.9
2023-04-24T02:11:12.308Z,20.9
2023-04-24T02:17:03.730Z,20.9
2023-04-24T02:22:54.599Z,20.9
2023-04-24T02:28:30.513Z,20.9
2023-04-24T02:34:22.088Z,20.9
2023-04-24T02:40:13.506Z,21
2023-04-24T02:46:04.723Z,21.1
2023-04-24T02:51:56.665Z,21.1
2023-04-24T02:57:47.816Z,21
2023-04-24T03:03:40.693Z,21
2023-04-24T03:09:33.309Z,21
2023-04-24T03:15:24.894Z,20.9
2023-04-24T03:21:19.860Z,20.9
2023-04-24T03:27:11.384Z,20.9
2023-04-24T03:33:03.766Z,20.9
2023-04-24T03:38:55.411Z,20.9
2023-04-24T03:44:33.886Z,20.9
2023-04-24T03:50:27.235Z,20.9
2023-04-24T03:56:18.791Z,20.8
2023-04-24T04:02:10.225Z,20.8
2023-04-24T04:08:03.918Z,20.8
2023-04-24T04:13:55.150Z,20.8
2023-04-24T04:19:46.888Z,20.8
2023-04-24T04:25:38.449Z,20.8
2023-04-24T04:31:29.898Z,20.8
2023-04-24T04:37:21.852Z,20.8
2023-04-24T04:43:13.889Z,20.8
2023-04-24T04:49:05.595Z,20.8
2023-04-24T04:54:57.584Z,20.8
2023-04-24T05:00:52.455Z,20.8
2023-04-24T05:06:45.431Z,20.8
2023-04-24T05:12:45.758Z,20.8
2023-04-24T05:18:47.734Z,20.7
2023-04-24T05:24:38.820Z,20.7
2023-04-24T05:30:14.476Z,20.7
2023-04-24T05:35:51.397Z,20.7
2023-04-24T05:41:42.348Z,20.7
2023-04-24T05:47:34.215Z,20.7
2023-04-24T05:53:10.030Z,20.7
2023-04-24T05:59:01.984Z,20.7
2023-04-24T06:04:56.141Z,20.7
2023-04-24T06:10:33.789Z,20.7
2023-04-24T06:16:10.007Z,20.7
2023-04-24T06:22:02.207Z,19.3
2023-04-24T06:27:38.189Z,19.6
2023-04-24T06:33:38.208Z,19.4
2023-04-24T06:39:30.092Z,19.8
2023-04-24T06:45:06.491Z,20.7
2023-04-24T06:50:43.804Z,21.5
2023-04-24T06:56:35.358Z,22.1
2023-04-24T07:02:28.871Z,22.9
2023-04-24T07:08:22.367Z,23.7
2023-04-24T07:14:14.467Z,24.2
2023-04-24T07:19:51.412Z,24.4
2023-04-24T07:25:29.437Z,25.6
2023-04-24T07:31:06.574Z,26.6
2023-04-24T07:36:58.658Z,27.6
2023-04-24T07:42:50.370Z,28.5
2023-04-24T07:48:42.929Z,29.4
2023-04-24T07:54:48.458Z,30.4
2023-04-24T08:00:42.704Z,31.3
2023-04-24T08:06:39.330Z,32.3
2023-04-24T08:12:17.288Z,33.1
2023-04-24T08:18:09.007Z,33.9
2023-04-24T08:24:01.502Z,34.9
2023-04-24T08:29:55.188Z,35.8
2023-04-24T08:35:32.280Z,36.5
2023-04-24T08:41:17.508Z,37.3
2023-04-24T08:47:15.841Z,38.3
2023-04-24T08:53:17.361Z,39.1
2023-04-24T08:59:08.830Z,39.9
2023-04-24T09:04:48.105Z,40.7
2023-04-24T09:10:39.998Z,41.6
2023-04-24T09:16:31.400Z,42
2023-04-24T09:22:07.918Z,42.3
2023-04-24T09:28:00.669Z,42.6
2023-04-24T09:33:37.259Z,43.6
2023-04-24T09:39:12.834Z,44.4
2023-04-24T09:45:12.239Z,45.1
2023-04-24T09:51:09.035Z,45.7
2023-04-24T09:57:01.886Z,46.4
2023-04-24T10:02:54.726Z,47
2023-04-24T10:08:47.487Z,47.1
2023-04-24T10:14:39.744Z,47.9
2023-04-24T10:20:32.076Z,48.6
2023-04-24T10:26:23.936Z,48.6
2023-04-24T10:32:15.717Z,48.9
2023-04-24T10:38:07.298Z,49.4
2023-04-24T10:43:59.475Z,49.5
2023-04-24T10:49:51.373Z,50.2
2023-04-24T10:55:43.205Z,50.1
2023-04-24T11:01:35.539Z,50.6
2023-04-24T11:07:13.771Z,49.7
2023-04-24T11:12:51.853Z,48.9
2023-04-24T11:18:29.592Z,48.1
